createdAt,value
2023-05-10T00:00:24.732Z,5.07
2023-05-10T00:02:51.790Z,4.94
2023-05-10T00:05:19.665Z,4.84
2023-05-10T00:07:46.457Z,4.77
2023-05-10T00:10:13.535Z,4.73
2023-05-10T00:12:40.484Z,4.67
2023-05-10T00:15:08.563Z,4.62
2023-05-10T00:17:35.807Z,4.56
2023-05-10T00:20:03.077Z,4.47
2023-05-10T00:22:29.816Z,4.37
2023-05-10T00:24:56.666Z,4.27
2023-05-10T00:27:23.481Z,4.17
2023-05-10T00:29:50.369Z,4.08
2023-05-10T00:32:17.750Z,4.01
2023-05-10T00:34:44.594Z,3.91
2023-05-10T00:37:12.494Z,3.93
2023-05-10T00:39:39.301Z,3.87
2023-05-10T00:42:06.206Z,3.81
2023-05-10T00:44:33.909Z,3.79
2023-05-10T00:47:00.925Z,3.73
2023-05-10T00:49:27.939Z,3.67
2023-05-10T00:51:55.067Z,3.58
2023-05-10T00:54:22.294Z,3.51
2023-05-10T00:56:50.456Z,3.44
2023-05-10T00:59:18.918Z,3.38
2023-05-10T01:01:47.116Z,3.32
2023-05-10T01:04:14.768Z,3.33
2023-05-10T01:06:43.194Z,3.31
2023-05-10T01:09:10.901Z,3.28
2023-05-10T01:11:41.004Z,3.24
2023-05-10T01:14:08.151Z,3.19
2023-05-10T01:16:39.203Z,3.14
2023-05-10T01:19:17.334Z,3.07
2023-05-10T01:21:55.225Z,2.89
2023-05-10T01:24:40.419Z,2.91
2023-05-10T01:27:24.667Z,2.85
2023-05-10T01:30:22.767Z,2.81
2023-05-10T01:33:08.803Z,2.80
2023-05-10T01:35:44.190Z,2.78
2023-05-10T01:38:14.683Z,2.74
2023-05-10T01:41:04.059Z,2.71
2023-05-10T01:43:36.600Z,2.65
2023-05-10T01:46:17.683Z,2.61
2023-05-10T01:48:52.649Z,2.57
2023-05-10T01:51:24.866Z,2.54
2023-05-10T01:53:55.209Z,2.54
2023-05-10T01:56:27.200Z,2.56
2023-05-10T01:58:55.717Z,2.55
2023-05-10T02:01:23.759Z,2.53
2023-05-10T02:03:52.561Z,2.55
2023-05-10T02:06:22.623Z,2.53
2023-05-10T02:08:51.588Z,2.50
2023-05-10T02:11:22.532Z,2.48
2023-05-10T02:13:51.600Z,2.46
2023-05-10T02:16:21.980Z,2.41
2023-05-10T02:18:50.175Z,2.41
2023-05-10T02:21:18.577Z,2.42
2023-05-10T02:23:46.588Z,2.41
2023-05-10T02:26:14.998Z,2.40
2023-05-10T02:28:43.961Z,2.37
2023-05-10T02:31:11.756Z,2.32
2023-05-10T02:33:41.452Z,2.29
2023-05-10T02:36:10.183Z,2.21
2023-05-10T02:38:37.836Z,2.20
2023-05-10T02:41:06.940Z,2.21
2023-05-10T02:43:34.993Z,2.23
2023-05-10T02:46:02.386Z,2.22
2023-05-10T02:48:29.819Z,2.17
2023-05-10T02:51:01.868Z,2.17
2023-05-10T02:53:33.072Z,2.14
2023-05-10T02:56:05.242Z,2.12
2023-05-10T02:58:32.455Z,2.07
2023-05-10T03:00:59.382Z,2.03
2023-05-10T03:03:26.496Z,2.00
2023-05-10T03:05:56.897Z,1.96
2023-05-10T03:08:24.844Z,1.95
2023-05-10T03:11:05.343Z,1.97
2023-05-10T03:13:40.751Z,2.01
2023-05-10T03:16:15.608Z,2.04
2023-05-10T03:18:51.917Z,2.04
2023-05-10T03:21:19.957Z,2.06
2023-05-10T03:23:52.202Z,2.04
2023-05-10T03:26:24.724Z,2.02
2023-05-10T03:28:54.423Z,1.99
2023-05-10T03:31:22.146Z,2.01
2023-05-10T03:33:50.540Z,2.05
2023-05-10T03:36:20.092Z,2.08
2023-05-10T03:38:47.068Z,2.15
2023-05-10T03:41:14.961Z,2.21
2023-05-10T03:43:42.369Z,2.27
2023-05-10T03:46:09.172Z,2.32
2023-05-10T03:48:35.988Z,2.37
2023-05-10T03:51:03.212Z,2.40
2023-05-10T03:53:30.553Z,2.46
2023-05-10T03:55:57.554Z,2.55
2023-05-10T03:58:24.740Z,2.61
2023-05-10T04:00:53.251Z,2.72
2023-05-10T04:03:21.388Z,2.86
2023-05-10T04:05:48.363Z,2.96
2023-05-10T04:08:17.430Z,3.06
2023-05-10T04:10:44.651Z,3.16
2023-05-10T04:13:12.405Z,3.24
2023-05-10T04:15:39.171Z,3.34
2023-05-10T04:18:08.001Z,3.45
2023-05-10T04:20:35.555Z,3.59
2023-05-10T04:23:02.426Z,3.74
2023-05-10T04:25:29.289Z,3.91
2023-05-10T04:27:56.006Z,4.09
2023-05-10T04:30:22.752Z,4.27
2023-05-10T04:32:49.611Z,4.46
2023-05-10T04:35:16.581Z,4.62
2023-05-10T04:37:44.210Z,4.94
2023-05-10T04:40:11.545Z,5.32
2023-05-10T04:42:42.126Z,5.81
2023-05-10T04:45:10.734Z,6.40
2023-05-10T04:47:40.706Z,7.05
2023-05-10T04:50:08.343Z,7.66
2023-05-10T04:52:35.129Z,8.21
2023-05-10T04:55:01.926Z,8.74
2023-05-10T04:57:28.799Z,9.35
2023-05-10T04:59:55.566Z,10.02
2023-05-10T05:02:22.780Z,10.72
2023-05-10T05:04:49.836Z,11.30
2023-05-10T05:07:16.763Z,11.71
2023-05-10T05:09:43.614Z,12.05
2023-05-10T05:12:15.323Z,12.33
2023-05-10T05:14:42.417Z,12.52
2023-05-10T05:17:09.294Z,12.68
2023-05-10T05:19:36.766Z,12.89
2023-05-10T05:22:03.656Z,13.08
2023-05-10T05:24:30.626Z,13.26
2023-05-10T05:26:57.493Z,13.46
2023-05-10T05:29:24.257Z,13.60
2023-05-10T05:31:51.565Z,13.77
2023-05-10T05:34:21.551Z,13.92
2023-05-10T05:36:48.974Z,14.09
2023-05-10T05:39:15.809Z,14.23
2023-05-10T05:41:43.432Z,14.41
2023-05-10T05:44:11.114Z,14.61
2023-05-10T05:46:38.013Z,14.92
2023-05-10T05:49:04.789Z,15.37
2023-05-10T05:51:32.148Z,15.96
2023-05-10T05:53:58.984Z,16.51
2023-05-10T05:56:25.996Z,16.94
2023-05-10T05:58:52.747Z,17.30
2023-05-10T06:01:19.852Z,17.68
2023-05-10T06:03:46.924Z,18.12
2023-05-10T06:06:14.425Z,18.67
2023-05-10T06:08:41.337Z,19.28
2023-05-10T06:11:08.119Z,19.83
2023-05-10T06:13:36.393Z,20.20
2023-05-10T06:16:04.442Z,20.48
2023-05-10T06:18:31.508Z,20.87
2023-05-10T06:20:58.572Z,21.28
2023-05-10T06:23:28.763Z,21.61
2023-05-10T06:25:55.596Z,21.74
2023-05-10T06:28:22.373Z,21.89
2023-05-10T06:30:49.177Z,22.32
2023-05-10T06:33:17.235Z,22.94
2023-05-10T06:35:44.111Z,23.56
2023-05-10T06:38:11.010Z,24.07
2023-05-10T06:40:37.787Z,24.48
2023-05-10T06:43:04.615Z,24.84
2023-05-10T06:45:31.455Z,25.22
2023-05-10T06:47:58.329Z,25.59
2023-05-10T06:50:25.647Z,25.95
2023-05-10T06:52:53.246Z,26.30
2023-05-10T06:55:20.938Z,26.46
2023-05-10T06:57:48.680Z,26.56
2023-05-10T07:00:16.342Z,26.60
2023-05-10T07:02:43.701Z,26.61
2023-05-10T07:05:10.488Z,26.69
2023-05-10T07:07:37.389Z,26.78
2023-05-10T07:10:04.638Z,26.94
2023-05-10T07:12:31.542Z,27.06
2023-05-10T07:14:58.431Z,27.20
2023-05-10T07:17:25.826Z,27.22
2023-05-10T07:19:53.035Z,27.27
2023-05-10T07:22:19.822Z,27.28
2023-05-10T07:24:47.364Z,27.44
2023-05-10T07:27:14.321Z,27.65
2023-05-10T07:29:41.214Z,27.71
2023-05-10T07:32:08.075Z,27.65
2023-05-10T07:34:35.036Z,27.76
2023-05-10T07:37:02.291Z,27.93
2023-05-10T07:39:29.114Z,28.07
2023-05-10T07:41:56.515Z,28.34
2023-05-10T07:44:23.646Z,28.37
2023-05-10T07:46:50.707Z,28.28
2023-05-10T07:49:17.686Z,28.10
2023-05-10T07:51:44.766Z,28.19
2023-05-10T07:54:11.742Z,28.35
2023-05-10T07:56:38.618Z,28.41
2023-05-10T07:59:07.464Z,28.27
2023-05-10T08:01:35.969Z,28.09
2023-05-10T08:04:05.420Z,28.03
2023-05-10T08:06:33.110Z,27.98
2023-05-10T08:09:00.158Z,28.10
2023-05-10T08:11:29.331Z,28.36
2023-05-10T08:13:56.127Z,28.35
2023-05-10T08:16:23.237Z,28.08
2023-05-10T08:18:51.862Z,27.89
2023-05-10T08:21:18.980Z,27.51
2023-05-10T08:23:45.975Z,27.48
2023-05-10T08:26:12.943Z,27.48
2023-05-10T08:28:39.836Z,27.60
2023-05-10T08:31:06.794Z,27.91
2023-05-10T08:33:33.946Z,27.93
2023-05-10T08:36:01.340Z,27.88
2023-05-10T08:38:28.220Z,27.68
2023-05-10T08:41:00.108Z,27.45
2023-05-10T08:43:30.411Z,27.19
2023-05-10T08:46:01.080Z,26.79
2023-05-10T08:48:30.565Z,26.53
2023-05-10T08:50:59.955Z,26.74
2023-05-10T08:53:28.332Z,26.95
2023-05-10T08:55:55.573Z,27.05
2023-05-10T08:58:22.858Z,27.17
2023-05-10T09:00:52.571Z,27.34
2023-05-10T09:03:19.568Z,27.33
2023-05-10T09:05:46.894Z,27.36
2023-05-10T09:08:15.554Z,27.36
2023-05-10T09:10:44.444Z,27.20
2023-05-10T09:13:12.907Z,27.05
2023-05-10T09:15:40.059Z,27.03
2023-05-10T09:18:07.128Z,27.13
2023-05-10T09:20:33.888Z,27.30
2023-05-10T09:23:00.742Z,27.29
2023-05-10T09:25:28.078Z,27.14
2023-05-10T09:27:55.976Z,27.05
2023-05-10T09:30:28.814Z,27.10
2023-05-10T09:32:56.998Z,27.07
2023-05-10T09:35:29.463Z,26.93
2023-05-10T09:37:59.038Z,26.87
2023-05-10T09:40:27.918Z,26.90
2023-05-10T09:42:58.446Z,26.89
2023-05-10T09:45:27.386Z,26.82
2023-05-10T09:47:55.150Z,26.51
2023-05-10T09:50:23.269Z,26.10
2023-05-10T09:52:50.160Z,25.86
2023-05-10T09:55:18.728Z,25.61
2023-05-10T09:57:46.588Z,25.33
2023-05-10T10:00:19.022Z,25.13
2023-05-10T10:02:56.737Z,24.94
2023-05-10T10:05:30.051Z,24.61
2023-05-10T10:07:59.094Z,24.20
2023-05-10T10:10:26.885Z,23.74
2023-05-10T10:12:54.664Z,23.39
2023-05-10T10:15:23.337Z,23.22
2023-05-10T10:17:51.957Z,23.12
2023-05-10T10:20:20.632Z,23.04
2023-05-10T10:22:48.185Z,23.14
2023-05-10T10:25:17.129Z,23.27
2023-05-10T10:27:55.043Z,23.38
2023-05-10T10:30:45.968Z,23.48
2023-05-10T10:33:44.822Z,23.43
2023-05-10T10:36:13.830Z,23.21
2023-05-10T10:38:47.942Z,23.07
2023-05-10T10:41:32.040Z,23.02
2023-05-10T10:44:30.437Z,23.08
2023-05-10T10:47:19.919Z,23.07
2023-05-10T10:50:02.764Z,23.04
2023-05-10T10:52:34.119Z,22.94
2023-05-10T10:55:20.197Z,22.94
2023-05-10T10:57:48.248Z,22.98
2023-05-10T11:00:32.992Z,23.00
2023-05-10T11:03:19.761Z,23.03
2023-05-10T11:05:49.231Z,23.12
2023-05-10T11:08:34.046Z,23.09
2023-05-10T11:11:04.432Z,23.13
2023-05-10T11:13:35.277Z,23.16
2023-05-10T11:16:17.215Z,23.36
2023-05-10T11:19:02.793Z,23.53
2023-05-10T11:21:31.950Z,23.75
2023-05-10T11:24:00.633Z,24.10
2023-05-10T11:26:32.821Z,24.42
2023-05-10T11:29:02.765Z,24.79
2023-05-10T11:31:30.517Z,25.12
2023-05-10T11:33:59.388Z,25.47
2023-05-10T11:36:28.930Z,25.87
2023-05-10T11:38:57.143Z,26.22
2023-05-10T11:41:25.501Z,26.29
2023-05-10T11:43:54.179Z,26.35
2023-05-10T11:46:23.364Z,26.32
2023-05-10T11:48:52.095Z,26.55
2023-05-10T11:51:23.872Z,26.98
2023-05-10T11:53:53.579Z,27.39
2023-05-10T11:56:22.017Z,27.69
2023-05-10T11:58:56.271Z,28.13
2023-05-10T12:01:25.406Z,28.62
2023-05-10T12:03:54.914Z,28.91
2023-05-10T12:06:22.833Z,29.16
2023-05-10T12:08:54.660Z,29.46
2023-05-10T12:11:26.785Z,29.74
2023-05-10T12:13:55.764Z,29.82
2023-05-10T12:16:24.898Z,29.77
2023-05-10T12:18:53.949Z,29.67
2023-05-10T12:21:22.287Z,29.71
2023-05-10T12:23:54.330Z,29.75
2023-05-10T12:26:26.017Z,29.82
2023-05-10T12:28:54.584Z,30.00
2023-05-10T12:31:22.016Z,29.80
2023-05-10T12:33:50.469Z,29.55
2023-05-10T12:36:19.030Z,29.48
2023-05-10T12:38:49.115Z,29.42
2023-05-10T12:41:18.110Z,29.56
2023-05-10T12:43:46.588Z,29.78
2023-05-10T12:46:15.757Z,29.79
2023-05-10T12:48:44.050Z,29.78
2023-05-10T12:51:12.932Z,29.79
2023-05-10T12:53:41.511Z,29.71
2023-05-10T12:56:10.345Z,29.61
2023-05-10T12:58:37.168Z,29.61
2023-05-10T13:01:05.208Z,29.53
2023-05-10T13:03:32.169Z,29.52
2023-05-10T13:05:59.149Z,29.31
2023-05-10T13:08:26.307Z,29.13
2023-05-10T13:10:53.452Z,29.13
2023-05-10T13:13:20.433Z,29.23
2023-05-10T13:15:47.556Z,29.34
2023-05-10T13:18:14.582Z,29.53
2023-05-10T13:20:41.743Z,29.66
2023-05-10T13:23:08.614Z,29.61
2023-05-10T13:25:35.902Z,29.53
2023-05-10T13:28:03.596Z,29.83
2023-05-10T13:30:30.994Z,30.26
2023-05-10T13:32:57.997Z,30.45
2023-05-10T13:35:24.862Z,30.16
2023-05-10T13:37:52.000Z,29.85
2023-05-10T13:40:19.057Z,29.59
2023-05-10T13:42:46.458Z,29.61
2023-05-10T13:45:14.415Z,29.77
2023-05-10T13:47:41.364Z,29.82
2023-05-10T13:50:08.775Z,29.58
2023-05-10T13:52:36.319Z,29.34
2023-05-10T13:55:03.928Z,29.01
2023-05-10T13:57:31.361Z,28.48
2023-05-10T13:59:58.821Z,27.94
2023-05-10T14:02:26.410Z,27.17
2023-05-10T14:04:53.337Z,26.49
2023-05-10T14:07:20.408Z,25.85
2023-05-10T14:09:47.409Z,25.34
2023-05-10T14:12:16.419Z,24.88
2023-05-10T14:14:43.315Z,24.55
2023-05-10T14:17:12.229Z,24.29
2023-05-10T14:19:40.077Z,24.08
2023-05-10T14:22:07.125Z,23.88
2023-05-10T14:24:34.003Z,23.65
2023-05-10T14:27:01.306Z,23.31
2023-05-10T14:29:28.373Z,23.14
2023-05-10T14:31:55.555Z,22.93
2023-05-10T14:34:22.456Z,22.72
2023-05-10T14:36:49.420Z,22.55
2023-05-10T14:39:16.632Z,22.41
2023-05-10T14:41:45.526Z,22.22
2023-05-10T14:44:12.425Z,22.11
2023-05-10T14:46:40.572Z,22.01
2023-05-10T14:49:23.854Z,21.91
2023-05-10T14:51:51.134Z,21.79
2023-05-10T14:54:17.965Z,21.67
2023-05-10T14:56:45.548Z,21.59
2023-05-10T14:59:12.326Z,21.55
2023-05-10T15:01:42.310Z,21.50
2023-05-10T15:04:09.917Z,21.43
2023-05-10T15:06:37.952Z,21.36
2023-05-10T15:09:04.891Z,21.31
2023-05-10T15:11:31.963Z,21.28
2023-05-10T15:13:58.843Z,21.18
2023-05-10T15:16:26.063Z,21.09
2023-05-10T15:18:53.332Z,21.05
2023-05-10T15:21:20.164Z,21.01
2023-05-10T15:23:47.154Z,20.98
2023-05-10T15:26:13.970Z,20.97
2023-05-10T15:28:40.880Z,20.96
2023-05-10T15:31:07.931Z,20.93
2023-05-10T15:33:34.875Z,20.82
2023-05-10T15:36:01.943Z,20.71
2023-05-10T15:38:28.751Z,20.66
2023-05-10T15:40:58.743Z,20.61
2023-05-10T15:43:25.754Z,20.55
2023-05-10T15:45:52.575Z,20.50
2023-05-10T15:48:19.470Z,20.44
2023-05-10T15:50:46.307Z,20.36
2023-05-10T15:53:13.252Z,20.25
2023-05-10T15:55:40.281Z,20.12
2023-05-10T15:58:07.227Z,19.95
2023-05-10T16:00:34.201Z,19.78
2023-05-10T16:03:01.236Z,19.61
2023-05-10T16:05:32.161Z,19.48
2023-05-10T16:08:00.064Z,19.34
2023-05-10T16:10:29.292Z,19.21
2023-05-10T16:12:56.260Z,19.10
2023-05-10T16:15:23.167Z,19.00
2023-05-10T16:17:50.366Z,18.89
2023-05-10T16:20:17.408Z,18.78
2023-05-10T16:22:44.682Z,18.68
2023-05-10T16:25:13.571Z,18.59
2023-05-10T16:27:40.933Z,18.51
2023-05-10T16:30:08.726Z,18.44
2023-05-10T16:32:35.705Z,18.36
2023-05-10T16:35:02.849Z,18.28
2023-05-10T16:37:29.744Z,18.20
2023-05-10T16:39:56.947Z,18.13
2023-05-10T16:42:25.191Z,18.09
2023-05-10T16:44:52.110Z,18.02
2023-05-10T16:47:18.950Z,17.96
2023-05-10T16:49:46.044Z,17.90
2023-05-10T16:52:13.062Z,17.85
2023-05-10T16:54:39.897Z,17.80
2023-05-10T16:57:06.864Z,17.75
2023-05-10T16:59:33.967Z,17.71
2023-05-10T17:02:00.866Z,17.67
2023-05-10T17:04:28.078Z,17.63
2023-05-10T17:06:56.010Z,17.56
2023-05-10T17:09:22.903Z,17.51
2023-05-10T17:11:49.947Z,17.45
2023-05-10T17:14:16.757Z,17.39
2023-05-10T17:16:43.672Z,17.33
2023-05-10T17:19:10.685Z,17.25
2023-05-10T17:21:38.625Z,17.16
2023-05-10T17:24:05.683Z,17.08
2023-05-10T17:26:32.724Z,17.00
2023-05-10T17:28:59.686Z,16.91
2023-05-10T17:31:28.416Z,16.82
2023-05-10T17:33:56.918Z,16.72
2023-05-10T17:36:23.785Z,16.62
2023-05-10T17:38:50.701Z,16.53
2023-05-10T17:41:20.538Z,16.45
2023-05-10T17:43:47.811Z,16.37
2023-05-10T17:46:15.616Z,16.27
2023-05-10T17:48:42.775Z,16.18
2023-05-10T17:51:12.715Z,16.08
2023-05-10T17:53:42.046Z,15.99
2023-05-10T17:56:09.735Z,15.90
2023-05-10T17:58:39.896Z,15.82
2023-05-10T18:01:06.805Z,15.74
2023-05-10T18:03:35.992Z,15.65
2023-05-10T18:06:04.601Z,15.57
2023-05-10T18:08:33.825Z,15.49
2023-05-10T18:11:01.237Z,15.40
2023-05-10T18:13:28.250Z,15.31
2023-05-10T18:15:56.647Z,15.20
2023-05-10T18:18:25.481Z,15.11
2023-05-10T18:20:56.754Z,14.97
2023-05-10T18:23:24.953Z,14.85
2023-05-10T18:25:52.237Z,14.72
2023-05-10T18:28:19.166Z,14.59
2023-05-10T18:30:46.601Z,14.45
2023-05-10T18:33:14.409Z,14.32
2023-05-10T18:35:42.113Z,14.21
2023-05-10T18:38:09.993Z,14.10
2023-05-10T18:40:37.407Z,13.99
2023-05-10T18:43:04.592Z,13.88
2023-05-10T18:45:31.958Z,13.77
2023-05-10T18:47:59.050Z,13.67
2023-05-10T18:50:26.011Z,13.56
2023-05-10T18:52:52.976Z,13.48
2023-05-10T18:55:20.058Z,13.37
2023-05-10T18:57:47.078Z,13.29
2023-05-10T19:00:14.679Z,13.21
2023-05-10T19:02:41.815Z,13.13
2023-05-10T19:05:09.634Z,13.07
2023-05-10T19:07:36.505Z,13.02
2023-05-10T19:10:03.572Z,12.98
2023-05-10T19:12:30.635Z,12.94
2023-05-10T19:14:57.446Z,12.89
2023-05-10T19:17:26.002Z,12.85
2023-05-10T19:19:54.396Z,12.82
2023-05-10T19:22:36.133Z,12.77
2023-05-10T19:25:10.984Z,12.74
2023-05-10T19:27:37.853Z,12.69
2023-05-10T19:30:06.044Z,12.65
2023-05-10T19:32:32.766Z,12.60
2023-05-10T19:34:59.662Z,12.55
2023-05-10T19:37:27.492Z,12.50
2023-05-10T19:39:54.244Z,12.46
2023-05-10T19:42:21.220Z,12.42
2023-05-10T19:44:48.196Z,12.37
2023-05-10T19:47:15.233Z,12.33
2023-05-10T19:49:44.353Z,12.29
2023-05-10T19:52:12.046Z,12.24
2023-05-10T19:54:38.768Z,12.19
2023-05-10T19:57:06.716Z,12.13
2023-05-10T19:59:33.539Z,12.06
2023-05-10T20:02:00.624Z,11.99
2023-05-10T20:04:28.889Z,11.90
2023-05-10T20:06:55.814Z,11.83
2023-05-10T20:09:22.595Z,11.75
2023-05-10T20:11:49.474Z,11.66
2023-05-10T20:14:16.585Z,11.58
2023-05-10T20:16:43.463Z,11.51
2023-05-10T20:19:11.866Z,11.43
2023-05-10T20:21:39.028Z,11.35
2023-05-10T20:24:07.826Z,11.26
2023-05-10T20:26:34.608Z,11.17
2023-05-10T20:29:01.329Z,11.08
2023-05-10T20:31:28.245Z,10.96
2023-05-10T20:33:54.994Z,10.93
2023-05-10T20:36:21.767Z,10.87
2023-05-10T20:38:48.459Z,10.80
2023-05-10T20:41:15.231Z,10.74
2023-05-10T20:43:42.400Z,10.68
2023-05-10T20:46:09.184Z,10.65
2023-05-10T20:48:36.157Z,10.61
2023-05-10T20:51:03.333Z,10.60
2023-05-10T20:53:30.276Z,10.57
2023-05-10T20:55:57.063Z,10.54
2023-05-10T20:58:23.955Z,10.51
2023-05-10T21:00:50.891Z,10.48
2023-05-10T21:03:17.753Z,10.44
2023-05-10T21:05:44.496Z,10.40
2023-05-10T21:08:11.280Z,10.35
2023-05-10T21:10:38.121Z,10.34
2023-05-10T21:13:05.336Z,10.32
2023-05-10T21:15:32.306Z,10.30
2023-05-10T21:17:59.930Z,10.26
2023-05-10T21:20:27.006Z,10.28
2023-05-10T21:22:53.713Z,10.29
2023-05-10T21:25:21.696Z,10.30
2023-05-10T21:27:48.489Z,10.32
2023-05-10T21:30:15.424Z,10.31
2023-05-10T21:32:42.656Z,10.30
2023-05-10T21:35:09.675Z,10.27
2023-05-10T21:37:36.426Z,10.21
2023-05-10T21:40:04.894Z,10.13
2023-05-10T21:42:32.076Z,10.06
2023-05-10T21:44:58.923Z,9.97
2023-05-10T21:47:25.653Z,9.88
2023-05-10T21:49:52.415Z,9.77
2023-05-10T21:52:19.207Z,9.60
2023-05-10T21:54:46.026Z,9.50
2023-05-10T21:57:12.877Z,9.38
2023-05-10T21:59:40.512Z,9.24
2023-05-10T22:02:07.602Z,9.09
2023-05-10T22:04:34.913Z,8.97
2023-05-10T22:07:01.730Z,8.84
2023-05-10T22:09:28.621Z,8.70
2023-05-10T22:11:55.413Z,8.59
2023-05-10T22:14:23.033Z,8.47
2023-05-10T22:16:50.056Z,8.35
2023-05-10T22:19:17.016Z,8.21
2023-05-10T22:21:43.867Z,8.08
2023-05-10T22:24:10.648Z,7.97
2023-05-10T22:26:37.490Z,7.87
2023-05-10T22:29:04.957Z,7.78
2023-05-10T22:31:32.048Z,7.72
2023-05-10T22:33:59.161Z,7.67
2023-05-10T22:36:25.908Z,7.62
2023-05-10T22:38:52.735Z,7.56
2023-05-10T22:41:19.511Z,7.50
2023-05-10T22:43:46.420Z,7.41
2023-05-10T22:46:13.450Z,7.33
2023-05-10T22:48:41.553Z,7.23
2023-05-10T22:51:08.340Z,7.13
2023-05-10T22:53:35.150Z,7.03
2023-05-10T22:56:02.396Z,6.95
2023-05-10T22:58:29.153Z,6.86
2023-05-10T23:00:56.082Z,6.75
2023-05-10T23:03:22.950Z,6.68
2023-05-10T23:05:49.703Z,6.63
2023-05-10T23:08:16.634Z,6.59
2023-05-10T23:10:43.485Z,6.57
2023-05-10T23:13:10.187Z,6.54
2023-05-10T23:15:37.462Z,6.50
2023-05-10T23:18:06.078Z,6.46
2023-05-10T23:20:33.154Z,6.44
2023-05-10T23:22:59.883Z,6.40
2023-05-10T23:25:26.693Z,6.36
2023-05-10T23:27:53.429Z,6.30
2023-05-10T23:30:20.181Z,6.24
2023-05-10T23:32:47.149Z,6.19
2023-05-10T23:35:13.920Z,6.18
2023-05-10T23:37:42.510Z,6.16
2023-05-10T23:40:10.063Z,6.16
2023-05-10T23:42:36.957Z,6.16
2023-05-10T23:45:04.751Z,6.16
2023-05-10T23:47:31.596Z,6.17
2023-05-10T23:49:58.585Z,6.16
2023-05-10T23:52:26.019Z,6.16
2023-05-10T23:54:53.528Z,6.13
2023-05-10T23:57:20.831Z,6.10
2023-05-10T23:59:47.723Z,6.08
